createdAt,value
2023-03-28T00:00:31.676Z,1.60
2023-03-28T00:03:39.471Z,1.20
2023-03-28T00:06:45.646Z,1.00
2023-03-28T00:09:51.316Z,0.80
2023-03-28T00:12:54.439Z,0.60
2023-03-28T00:16:03.758Z,0.60
2023-03-28T00:19:09.646Z,0.50
2023-03-28T00:22:12.628Z,0.50
2023-03-28T00:25:17.176Z,0.40
2023-03-28T00:28:20.324Z,0.50
2023-03-28T00:31:24.508Z,0.50
2023-03-28T00:34:27.635Z,0.50
2023-03-28T00:37:31.711Z,0.50
2023-03-28T00:40:39.677Z,0.50
2023-03-28T00:43:45.511Z,0.50
2023-03-28T00:46:48.806Z,0.50
2023-03-28T00:49:53.882Z,0.60
2023-03-28T00:53:04.570Z,0.60
2023-03-28T00:56:12.659Z,0.60
2023-03-28T00:59:20.479Z,0.60
2023-03-28T01:02:23.546Z,0.80
2023-03-28T01:05:29.260Z,0.80
2023-03-28T01:08:39.603Z,0.70
2023-03-28T01:11:46.583Z,0.60
2023-03-28T01:14:49.662Z,0.60
2023-03-28T01:17:53.215Z,0.60
2023-03-28T01:21:49.384Z,0.60
2023-03-28T01:25:36.472Z,0.60
2023-03-28T01:29:13.728Z,0.60
2023-03-28T01:32:55.361Z,0.70
2023-03-28T01:36:39.871Z,0.70
2023-03-28T01:40:11.307Z,0.60
2023-03-28T01:43:31.751Z,0.60
2023-03-28T01:46:39.212Z,0.70
2023-03-28T01:49:49.118Z,0.80
2023-03-28T01:53:03.378Z,0.80
2023-03-28T01:56:12.314Z,0.80
2023-03-28T01:59:21.039Z,0.90
2023-03-28T02:02:30.578Z,1.00
2023-03-28T02:05:38.481Z,1.00
2023-03-28T02:08:45.759Z,1.00
2023-03-28T02:11:51.376Z,0.90
2023-03-28T02:14:57.922Z,0.80
2023-03-28T02:18:05.358Z,0.80
2023-03-28T02:21:11.968Z,0.70
2023-03-28T02:24:16.429Z,0.60
2023-03-28T02:27:22.559Z,0.60
2023-03-28T02:30:26.003Z,0.60
2023-03-28T02:33:39.412Z,0.60
2023-03-28T02:36:49.707Z,0.60
2023-03-28T02:40:07.252Z,0.50
2023-03-28T02:43:27.629Z,0.50
2023-03-28T02:46:35.085Z,0.50
2023-03-28T02:49:50.923Z,0.50
2023-03-28T02:53:03.575Z,0.40
2023-03-28T02:56:13.279Z,0.50
2023-03-28T02:59:19.685Z,0.50
2023-03-28T03:02:23.982Z,0.60
2023-03-28T03:05:27.138Z,0.60
2023-03-28T03:08:30.125Z,0.60
2023-03-28T03:11:34.572Z,0.60
2023-03-28T03:14:38.970Z,0.70
2023-03-28T03:17:41.933Z,0.70
2023-03-28T03:20:47.909Z,0.80
2023-03-28T03:23:51.225Z,0.80
2023-03-28T03:26:55.828Z,0.80
2023-03-28T03:29:58.985Z,0.80
2023-03-28T03:33:05.786Z,0.80
2023-03-28T03:36:12.756Z,0.80
2023-03-28T03:39:15.834Z,0.80
2023-03-28T03:42:20.425Z,0.60
2023-03-28T03:45:23.488Z,0.60
2023-03-28T03:48:26.547Z,0.60
2023-03-28T03:51:29.583Z,0.60
2023-03-28T03:54:32.884Z,0.60
2023-03-28T03:57:37.412Z,0.60
2023-03-28T04:00:40.386Z,0.50
2023-03-28T04:03:43.657Z,0.50
2023-03-28T04:06:46.625Z,0.50
2023-03-28T04:09:49.638Z,0.50
2023-03-28T04:12:54.980Z,0.60
2023-03-28T04:15:58.414Z,0.60
2023-03-28T04:19:02.100Z,0.50
2023-03-28T04:22:07.999Z,0.40
2023-03-28T04:25:11.064Z,0.40
2023-03-28T04:28:17.056Z,0.40
2023-03-28T04:31:21.904Z,0.30
2023-03-28T04:34:30.048Z,0.30
2023-03-28T04:37:33.454Z,0.30
2023-03-28T04:40:39.744Z,0.20
2023-03-28T04:43:44.298Z,0.30
2023-03-28T04:46:48.934Z,0.30
2023-03-28T04:49:52.591Z,0.30
2023-03-28T04:52:55.662Z,0.30
2023-03-28T04:56:00.163Z,0.30
2023-03-28T04:59:07.756Z,0.30
2023-03-28T05:02:11.037Z,0.30
2023-03-28T05:05:14.111Z,0.40
2023-03-28T05:08:19.111Z,0.30
2023-03-28T05:11:23.169Z,0.30
2023-03-28T05:14:27.913Z,0.30
2023-03-28T05:17:30.931Z,0.30
2023-03-28T05:20:34.891Z,0.40
2023-03-28T05:23:37.929Z,0.50
2023-03-28T05:26:41.224Z,0.60
2023-03-28T05:29:46.716Z,0.60
2023-03-28T05:32:49.975Z,0.60
2023-03-28T05:35:53.609Z,0.60
2023-03-28T05:38:56.619Z,0.50
2023-03-28T05:41:59.645Z,0.50
2023-03-28T05:45:04.786Z,0.40
2023-03-28T05:48:07.867Z,0.30
2023-03-28T05:51:10.946Z,0.40
2023-03-28T05:54:14.115Z,0.50
2023-03-28T05:57:17.882Z,0.50
2023-03-28T06:00:23.584Z,0.60
2023-03-28T06:03:28.063Z,0.60
2023-03-28T06:06:31.228Z,0.60
2023-03-28T06:09:35.082Z,0.60
2023-03-28T06:12:38.251Z,0.60
2023-03-28T06:15:42.813Z,0.70
2023-03-28T06:18:45.800Z,0.80
2023-03-28T06:21:49.031Z,0.80
2023-03-28T06:24:52.140Z,0.80
2023-03-28T06:27:55.894Z,1.00
2023-03-28T06:31:00.916Z,1.30
2023-03-28T06:34:04.184Z,1.40
2023-03-28T06:37:07.436Z,1.40
2023-03-28T06:40:12.016Z,1.10
2023-03-28T06:43:15.302Z,1.10
2023-03-28T06:46:20.535Z,1.10
2023-03-28T06:49:23.846Z,1.20
2023-03-28T06:52:27.095Z,1.30
2023-03-28T06:55:30.237Z,1.40
2023-03-28T06:58:33.211Z,1.50
2023-03-28T07:01:37.632Z,1.60
2023-03-28T07:04:40.782Z,1.70
2023-03-28T07:07:43.955Z,1.80
2023-03-28T07:10:47.004Z,1.90
2023-03-28T07:13:49.945Z,2.00
2023-03-28T07:16:54.991Z,2.00
2023-03-28T07:19:58.072Z,2.10
2023-03-28T07:23:03.812Z,2.30
2023-03-28T07:26:08.424Z,2.40
2023-03-28T07:29:13.610Z,2.50
2023-03-28T07:32:17.969Z,2.50
2023-03-28T07:35:21.089Z,2.40
2023-03-28T07:38:24.372Z,2.40
2023-03-28T07:41:27.526Z,2.30
2023-03-28T07:44:30.629Z,2.30
2023-03-28T07:47:35.324Z,2.40
2023-03-28T07:50:38.322Z,2.50
2023-03-28T07:53:41.392Z,2.50
2023-03-28T07:56:45.302Z,2.60
2023-03-28T07:59:50.402Z,2.70
2023-03-28T08:02:54.776Z,2.70
2023-03-28T08:05:59.164Z,2.80
2023-03-28T08:09:03.752Z,2.80
2023-03-28T08:12:07.069Z,2.90
2023-03-28T08:15:11.604Z,3.00
2023-03-28T08:18:20.893Z,2.90
2023-03-28T08:21:26.690Z,3.00
2023-03-28T08:24:35.791Z,3.00
2023-03-28T08:27:39.369Z,3.10
2023-03-28T08:30:42.361Z,3.10
2023-03-28T08:33:48.605Z,3.30
2023-03-28T08:36:51.603Z,3.30
2023-03-28T08:39:54.805Z,3.30
2023-03-28T08:43:12.420Z,3.50
2023-03-28T08:46:20.149Z,3.50
2023-03-28T08:49:24.934Z,3.50
2023-03-28T08:52:29.334Z,3.50
2023-03-28T08:55:37.948Z,3.50
2023-03-28T08:59:04.986Z,3.80
2023-03-28T09:02:17.999Z,3.80
2023-03-28T09:05:30.408Z,3.70
2023-03-28T09:09:08.289Z,3.60
2023-03-28T09:12:25.557Z,3.60
2023-03-28T09:15:42.020Z,3.80
2023-03-28T09:19:44.676Z,4.00
2023-03-28T09:23:33.532Z,4.00
2023-03-28T09:26:40.694Z,4.30
2023-03-28T09:29:48.288Z,4.50
2023-03-28T09:32:55.290Z,4.70
2023-03-28T09:35:58.753Z,4.70
2023-03-28T09:39:13.355Z,4.50
2023-03-28T09:42:27.698Z,4.50
2023-03-28T09:45:40.722Z,4.70
2023-03-28T09:48:44.122Z,4.90
2023-03-28T09:51:47.510Z,5.00
2023-03-28T09:54:52.565Z,4.90
2023-03-28T09:58:07.631Z,5.10
2023-03-28T10:01:27.078Z,5.20
2023-03-28T10:04:39.368Z,5.00
2023-03-28T10:07:44.732Z,5.00
2023-03-28T10:11:02.681Z,5.00
2023-03-28T10:14:06.406Z,5.00
2023-03-28T10:17:15.210Z,5.00
2023-03-28T10:20:21.472Z,4.90
2023-03-28T10:23:26.115Z,4.90
2023-03-28T10:26:30.894Z,5.00
2023-03-28T10:29:34.444Z,4.90
2023-03-28T10:32:37.469Z,5.00
2023-03-28T10:35:46.385Z,5.00
2023-03-28T10:38:51.081Z,5.00
2023-03-28T10:41:57.954Z,5.30
2023-03-28T10:45:02.276Z,5.40
2023-03-28T10:48:14.778Z,5.50
2023-03-28T10:51:22.152Z,5.50
2023-03-28T10:54:38.962Z,5.80
2023-03-28T10:57:53.888Z,5.90
2023-03-28T11:01:02.129Z,6.30
2023-03-28T11:04:21.218Z,6.60
2023-03-28T11:07:32.407Z,6.80
2023-03-28T11:10:43.281Z,7.00
2023-03-28T11:13:57.896Z,7.00
2023-03-28T11:17:08.472Z,6.70
2023-03-28T11:20:24.949Z,6.60
2023-03-28T11:23:39.808Z,6.30
2023-03-28T11:26:52.958Z,6.30
2023-03-28T11:30:05.381Z,6.10
2023-03-28T11:33:16.642Z,6.20
2023-03-28T11:36:23.908Z,6.30
2023-03-28T11:39:44.602Z,6.40
2023-03-28T11:42:57.005Z,6.60
2023-03-28T11:46:10.098Z,6.90
2023-03-28T11:49:21.401Z,7.20
2023-03-28T11:52:27.593Z,7.40
2023-03-28T11:55:35.332Z,7.30
2023-03-28T11:58:42.895Z,7.50
2023-03-28T12:01:51.941Z,7.70
2023-03-28T12:05:01.712Z,7.90
2023-03-28T12:08:12.504Z,7.60
2023-03-28T12:11:21.634Z,7.20
2023-03-28T12:14:36.123Z,7.20
2023-03-28T12:17:44.404Z,7.50
2023-03-28T12:20:51.934Z,8.00
2023-03-28T12:24:04.938Z,8.10
2023-03-28T12:27:20.514Z,8.00
2023-03-28T12:30:31.204Z,7.60
2023-03-28T12:33:56.183Z,7.20
2023-03-28T12:37:06.185Z,7.20
2023-03-28T12:40:23.881Z,7.60
2023-03-28T12:43:31.545Z,8.00
2023-03-28T12:46:38.318Z,8.10
2023-03-28T12:49:46.709Z,8.30
2023-03-28T12:52:50.494Z,8.30
2023-03-28T12:55:54.158Z,8.40
2023-03-28T12:58:59.902Z,8.10
2023-03-28T13:02:10.961Z,7.60
2023-03-28T13:05:23.957Z,7.40
2023-03-28T13:08:37.734Z,7.50
2023-03-28T13:11:50.843Z,7.50
2023-03-28T13:15:01.988Z,7.20
2023-03-28T13:18:27.927Z,7.30
2023-03-28T13:21:46.289Z,7.50
2023-03-28T13:24:49.378Z,7.80
2023-03-28T13:27:55.341Z,7.90
2023-03-28T13:31:13.312Z,8.00
2023-03-28T13:34:25.117Z,7.80
2023-03-28T13:37:46.985Z,7.80
2023-03-28T13:40:54.454Z,7.80
2023-03-28T13:44:00.314Z,7.40
2023-03-28T13:47:03.669Z,7.20
2023-03-28T13:50:20.676Z,7.50
2023-03-28T13:53:34.626Z,8.00
2023-03-28T13:56:46.770Z,8.20
2023-03-28T13:59:54.609Z,8.20
2023-03-28T14:03:03.975Z,8.10
2023-03-28T14:06:20.162Z,8.10
2023-03-28T14:09:33.508Z,8.30
2023-03-28T14:12:37.185Z,8.20
2023-03-28T14:15:42.098Z,8.30
2023-03-28T14:18:47.689Z,8.30
2023-03-28T14:21:51.196Z,8.40
2023-03-28T14:24:58.951Z,8.40
2023-03-28T14:28:09.453Z,8.60
2023-03-28T14:31:14.568Z,8.30
2023-03-28T14:34:24.019Z,8.10
2023-03-28T14:37:29.793Z,8.20
2023-03-28T14:40:36.289Z,8.20
2023-03-28T14:43:39.434Z,8.20
2023-03-28T14:46:42.474Z,8.20
2023-03-28T14:49:46.833Z,8.30
2023-03-28T14:52:49.893Z,8.50
2023-03-28T14:55:57.658Z,8.60
2023-03-28T14:59:05.474Z,8.60
2023-03-28T15:02:20.043Z,8.50
2023-03-28T15:05:24.078Z,8.50
2023-03-28T15:08:34.090Z,8.40
2023-03-28T15:11:41.196Z,8.50
2023-03-28T15:14:46.832Z,8.50
2023-03-28T15:17:51.673Z,8.60
2023-03-28T15:20:57.550Z,8.90
2023-03-28T15:24:03.627Z,8.90
2023-03-28T15:27:15.281Z,8.70
2023-03-28T15:30:21.135Z,8.40
2023-03-28T15:33:25.977Z,8.30
2023-03-28T15:36:35.477Z,8.30
2023-03-28T15:39:38.499Z,8.10
2023-03-28T15:42:47.190Z,8.00
2023-03-28T15:45:56.995Z,7.80
2023-03-28T15:49:03.073Z,7.80
2023-03-28T15:52:09.533Z,7.60
2023-03-28T15:55:22.176Z,7.40
2023-03-28T15:58:26.733Z,7.20
2023-03-28T16:01:31.975Z,7.00
2023-03-28T16:04:35.448Z,6.90
2023-03-28T16:07:48.926Z,6.80
2023-03-28T16:10:52.044Z,6.70
2023-03-28T16:13:56.294Z,6.70
2023-03-28T16:16:59.533Z,6.60
2023-03-28T16:20:03.796Z,6.60
2023-03-28T16:23:08.019Z,6.50
2023-03-28T16:26:11.171Z,6.60
2023-03-28T16:29:15.748Z,6.50
2023-03-28T16:32:18.988Z,6.60
2023-03-28T16:35:22.719Z,6.60
2023-03-28T16:38:25.907Z,6.70
2023-03-28T16:41:29.098Z,6.70
2023-03-28T16:44:34.125Z,6.60
2023-03-28T16:47:38.637Z,6.60
2023-03-28T16:50:41.813Z,6.60
2023-03-28T16:53:44.884Z,6.60
2023-03-28T16:56:48.355Z,6.60
2023-03-28T16:59:52.794Z,6.50
2023-03-28T17:02:56.255Z,6.40
2023-03-28T17:06:03.136Z,6.40
2023-03-28T17:09:06.743Z,6.30
2023-03-28T17:12:09.924Z,6.30
2023-03-28T17:15:14.681Z,6.20
2023-03-28T17:18:17.686Z,6.10
2023-03-28T17:21:21.398Z,6.00
2023-03-28T17:28:15.130Z,5.90
2023-03-28T17:31:21.216Z,5.80
2023-03-28T17:34:24.863Z,5.70
2023-03-28T17:37:27.822Z,5.70
2023-03-28T17:40:31.139Z,5.60
2023-03-28T17:43:34.112Z,5.50
2023-03-28T17:46:39.302Z,5.50
2023-03-28T17:49:42.538Z,5.50
2023-03-28T17:52:45.759Z,5.50
2023-03-28T17:55:48.835Z,5.40
2023-03-28T17:58:51.915Z,5.30
2023-03-28T18:01:56.368Z,5.30
2023-03-28T18:04:59.739Z,5.30
2023-03-28T18:08:02.838Z,5.30
2023-03-28T18:11:08.588Z,5.20
2023-03-28T18:14:12.405Z,5.10
2023-03-28T18:17:17.121Z,5.10
2023-03-28T18:20:21.752Z,5.00
2023-03-28T18:23:26.412Z,5.00
2023-03-28T18:26:30.616Z,5.00
2023-03-28T18:29:34.083Z,4.90
2023-03-28T18:32:38.474Z,4.90
2023-03-28T18:35:42.052Z,4.90
2023-03-28T18:38:46.492Z,4.90
2023-03-28T18:41:49.481Z,4.80
2023-03-28T18:44:52.705Z,4.70
2023-03-28T18:47:57.291Z,4.70
2023-03-28T18:51:02.002Z,4.70
2023-03-28T18:54:05.226Z,4.70
2023-03-28T18:57:08.340Z,4.70
2023-03-28T19:00:17.666Z,4.90
2023-03-28T19:03:22.522Z,4.90
2023-03-28T19:06:28.027Z,5.00
2023-03-28T19:13:04.619Z,5.00
2023-03-28T19:16:13.664Z,5.00
2023-03-28T19:22:49.713Z,4.80
2023-03-28T19:25:53.064Z,4.80
2023-03-28T19:28:56.614Z,4.70
2023-03-28T19:32:00.015Z,4.70
2023-03-28T19:35:06.098Z,4.80
2023-03-28T19:38:10.290Z,5.00
2023-03-28T19:41:19.890Z,4.90
2023-03-28T19:44:24.146Z,4.90
2023-03-28T19:47:27.860Z,4.90
2023-03-28T19:50:33.706Z,4.90
2023-03-28T19:53:37.688Z,4.90
2023-03-28T19:56:42.149Z,4.90
2023-03-28T19:59:46.019Z,5.00
2023-03-28T20:02:49.913Z,5.00
2023-03-28T20:05:56.168Z,4.90
2023-03-28T20:08:59.880Z,4.90
2023-03-28T20:12:04.720Z,4.90
2023-03-28T20:15:09.988Z,4.80
2023-03-28T20:18:20.160Z,4.70
2023-03-28T20:21:28.979Z,4.70
2023-03-28T20:24:33.246Z,4.70
2023-03-28T20:27:39.327Z,4.70
2023-03-28T20:30:46.003Z,4.70
2023-03-28T20:33:49.883Z,4.60
2023-03-28T20:36:57.258Z,4.60
2023-03-28T20:40:05.265Z,4.50
2023-03-28T20:43:10.139Z,4.50
2023-03-28T20:46:14.849Z,4.40
2023-03-28T20:49:20.483Z,4.40
2023-03-28T20:52:25.933Z,4.30
2023-03-28T20:55:31.311Z,4.30
2023-03-28T20:58:39.712Z,4.20
2023-03-28T21:01:46.563Z,4.10
2023-03-28T21:04:50.194Z,4.10
2023-03-28T21:07:59.460Z,4.00
2023-03-28T21:11:03.730Z,4.00
2023-03-28T21:14:08.148Z,3.90
2023-03-28T21:17:22.134Z,3.90
2023-03-28T21:20:26.129Z,3.90
2023-03-28T21:23:31.305Z,3.90
2023-03-28T21:26:35.954Z,3.80
2023-03-28T21:29:39.679Z,3.80
2023-03-28T21:32:43.455Z,3.80
2023-03-28T21:35:50.659Z,3.80
2023-03-28T21:38:56.506Z,3.70
2023-03-28T21:42:00.156Z,3.70
2023-03-28T21:45:04.020Z,3.70
2023-03-28T21:48:07.961Z,3.80
2023-03-28T21:51:12.143Z,3.70
2023-03-28T21:54:17.194Z,3.80
2023-03-28T21:57:20.756Z,3.80
2023-03-28T22:00:24.298Z,3.70
2023-03-28T22:03:29.728Z,3.70
2023-03-28T22:06:33.391Z,3.70
2023-03-28T22:09:39.432Z,3.70
2023-03-28T22:12:44.805Z,3.70
2023-03-28T22:15:48.236Z,3.70
2023-03-28T22:18:52.569Z,3.70
2023-03-28T22:21:56.771Z,3.70
2023-03-28T22:25:01.825Z,3.70
2023-03-28T22:28:06.048Z,3.70
2023-03-28T22:31:09.455Z,3.60
2023-03-28T22:34:13.240Z,3.60
2023-03-28T22:37:16.898Z,3.50
2023-03-28T22:40:23.599Z,3.50
2023-03-28T22:43:29.083Z,3.50
2023-03-28T22:46:32.438Z,3.50
2023-03-28T22:49:36.209Z,3.50
2023-03-28T22:52:42.106Z,3.40
2023-03-28T22:55:47.032Z,3.40
2023-03-28T22:58:51.081Z,3.40
2023-03-28T23:01:55.446Z,3.30
2023-03-28T23:05:00.148Z,3.30
2023-03-28T23:08:03.960Z,3.30
2023-03-28T23:11:09.399Z,3.20
2023-03-28T23:14:13.232Z,3.10
2023-03-28T23:17:16.483Z,3.10
2023-03-28T23:20:21.332Z,3.10
2023-03-28T23:23:24.497Z,3.10
2023-03-28T23:26:29.223Z,3.00
2023-03-28T23:29:32.788Z,2.90
2023-03-28T23:32:36.275Z,2.80
2023-03-28T23:35:48.308Z,2.80
2023-03-28T23:38:51.702Z,2.70
2023-03-28T23:41:56.833Z,2.70
2023-03-28T23:45:00.330Z,2.70
2023-03-28T23:48:04.178Z,2.60
2023-03-28T23:51:09.145Z,2.50
2023-03-28T23:54:13.003Z,2.50
2023-03-28T23:57:18.334Z,2.50
